sensor_id;sensor_type;location;lat;lon;timestamp;temperature;humidity
9861;DHT22;4969;52.304;4.968;2022-10-22T00:01:56;19.54;69.95
9861;DHT22;4969;52.304;4.968;2022-10-22T00:04:22;19.44;70.00
9861;DHT22;4969;52.304;4.968;2022-10-22T00:06:49;19.37;70.22
9861;DHT22;4969;52.304;4.968;2022-10-22T00:09:17;19.51;69.92
9861;DHT22;4969;52.304;4.968;2022-10-22T00:11:43;19.50;69.95
9861;DHT22;4969;52.304;4.968;2022-10-22T00:14:10;19.54;69.84
9861;DHT22;4969;52.304;4.968;2022-10-22T00:16:37;19.65;69.39
9861;DHT22;4969;52.304;4.968;2022-10-22T00:19:04;19.51;69.92
9861;DHT22;4969;52.304;4.968;2022-10-22T00:21:30;19.27;69.60
9861;DHT22;4969;52.304;4.968;2022-10-22T00:23:57;19.34;70.37
9861;DHT22;4969;52.304;4.968;2022-10-22T00:26:25;19.31;70.40
9861;DHT22;4969;52.304;4.968;2022-10-22T00:28:51;19.40;70.31
9861;DHT22;4969;52.304;4.968;2022-10-22T00:31:18;19.41;70.21
9861;DHT22;4969;52.304;4.968;2022-10-22T00:33:45;19.38;70.37
9861;DHT22;4969;52.304;4.968;2022-10-22T00:36:12;19.40;70.08
9861;DHT22;4969;52.304;4.968;2022-10-22T00:38:38;19.50;69.92
9861;DHT22;4969;52.304;4.968;2022-10-22T00:41:05;19.58;69.53
9861;DHT22;4969;52.304;4.968;2022-10-22T00:43:55;19.55;69.82
9861;DHT22;4969;52.304;4.968;2022-10-22T00:46:22;19.69;69.09
9861;DHT22;4969;52.304;4.968;2022-10-22T00:48:50;19.69;69.15
9861;DHT22;4969;52.304;4.968;2022-10-22T00:51:17;19.76;68.95
9861;DHT22;4969;52.304;4.968;2022-10-22T00:53:47;19.65;69.04
9861;DHT22;4969;52.304;4.968;2022-10-22T00:56:16;19.37;69.91
9861;DHT22;4969;52.304;4.968;2022-10-22T00:58:46;19.62;69.35
9861;DHT22;4969;52.304;4.968;2022-10-22T01:01:17;19.62;68.81
9861;DHT22;4969;52.304;4.968;2022-10-22T01:03:46;19.57;69.31
9861;DHT22;4969;52.304;4.968;2022-10-22T01:06:20;19.54;69.44
9861;DHT22;4969;52.304;4.968;2022-10-22T01:08:55;19.55;69.61
9861;DHT22;4969;52.304;4.968;2022-10-22T01:11:31;19.55;68.76
9861;DHT22;4969;52.304;4.968;2022-10-22T01:14:11;19.59;69.57
9861;DHT22;4969;52.304;4.968;2022-10-22T01:16:43;19.66;69.27
9861;DHT22;4969;52.304;4.968;2022-10-22T01:19:39;19.47;69.41
9861;DHT22;4969;52.304;4.968;2022-10-22T01:22:13;19.59;69.35
9861;DHT22;4969;52.304;4.968;2022-10-22T01:24:55;19.62;69.47
9861;DHT22;4969;52.304;4.968;2022-10-22T01:27:33;19.63;69.21
9861;DHT22;4969;52.304;4.968;2022-10-22T01:30:04;19.62;69.24
9861;DHT22;4969;52.304;4.968;2022-10-22T01:32:33;19.68;69.12
9861;DHT22;4969;52.304;4.968;2022-10-22T01:35:05;19.54;68.97
9861;DHT22;4969;52.304;4.968;2022-10-22T01:37:37;19.73;68.89
9861;DHT22;4969;52.304;4.968;2022-10-22T01:40:07;19.79;68.69
9861;DHT22;4969;52.304;4.968;2022-10-22T01:42:34;19.72;68.74
9861;DHT22;4969;52.304;4.968;2022-10-22T01:45:09;19.58;69.17
9861;DHT22;4969;52.304;4.968;2022-10-22T01:47:41;19.76;68.70
9861;DHT22;4969;52.304;4.968;2022-10-22T01:50:27;19.66;68.96
9861;DHT22;4969;52.304;4.968;2022-10-22T01:53:09;19.63;69.03
9861;DHT22;4969;52.304;4.968;2022-10-22T01:55:44;19.61;69.05
9861;DHT22;4969;52.304;4.968;2022-10-22T01:58:23;19.52;69.42
9861;DHT22;4969;52.304;4.968;2022-10-22T02:01:01;19.45;69.41
9861;DHT22;4969;52.304;4.968;2022-10-22T02:03:34;19.44;69.47
9861;DHT22;4969;52.304;4.968;2022-10-22T02:06:07;19.41;69.80
9861;DHT22;4969;52.304;4.968;2022-10-22T02:08:37;19.52;69.32
9861;DHT22;4969;52.304;4.968;2022-10-22T02:11:04;19.50;69.31
9861;DHT22;4969;52.304;4.968;2022-10-22T02:13:34;19.71;68.96
9861;DHT22;4969;52.304;4.968;2022-10-22T02:16:07;19.68;68.80
9861;DHT22;4969;52.304;4.968;2022-10-22T02:18:36;19.73;68.82
9861;DHT22;4969;52.304;4.968;2022-10-22T02:21:04;19.73;68.45
9861;DHT22;4969;52.304;4.968;2022-10-22T02:23:35;19.76;68.53
9861;DHT22;4969;52.304;4.968;2022-10-22T02:26:08;19.59;67.99
9861;DHT22;4969;52.304;4.968;2022-10-22T02:28:39;19.50;68.32
9861;DHT22;4969;52.304;4.968;2022-10-22T02:31:14;19.50;69.31
9861;DHT22;4969;52.304;4.968;2022-10-22T02:33:44;19.73;68.41
9861;DHT22;4969;52.304;4.968;2022-10-22T02:36:13;19.51;69.10
9861;DHT22;4969;52.304;4.968;2022-10-22T02:38:41;19.66;68.84
9861;DHT22;4969;52.304;4.968;2022-10-22T02:41:08;19.83;68.28
9861;DHT22;4969;52.304;4.968;2022-10-22T02:43:40;19.78;68.39
9861;DHT22;4969;52.304;4.968;2022-10-22T02:46:07;19.62;68.11
9861;DHT22;4969;52.304;4.968;2022-10-22T02:48:35;19.61;68.48
9861;DHT22;4969;52.304;4.968;2022-10-22T02:51:02;19.30;68.13
9861;DHT22;4969;52.304;4.968;2022-10-22T02:53:28;19.58;69.10
9861;DHT22;4969;52.304;4.968;2022-10-22T02:55:55;19.68;68.60
9861;DHT22;4969;52.304;4.968;2022-10-22T02:58:22;19.65;67.21
9861;DHT22;4969;52.304;4.968;2022-10-22T03:00:49;19.50;69.14
9861;DHT22;4969;52.304;4.968;2022-10-22T03:03:15;19.59;68.57
9861;DHT22;4969;52.304;4.968;2022-10-22T03:05:43;19.73;68.06
9861;DHT22;4969;52.304;4.968;2022-10-22T03:08:10;19.57;68.94
9861;DHT22;4969;52.304;4.968;2022-10-22T03:10:36;19.72;67.16
9861;DHT22;4969;52.304;4.968;2022-10-22T03:13:03;19.63;68.70
9861;DHT22;4969;52.304;4.968;2022-10-22T03:15:30;19.61;68.75
9861;DHT22;4969;52.304;4.968;2022-10-22T03:17:56;19.58;68.39
9861;DHT22;4969;52.304;4.968;2022-10-22T03:20:23;19.57;69.18
9861;DHT22;4969;52.304;4.968;2022-10-22T03:22:51;19.69;68.29
9861;DHT22;4969;52.304;4.968;2022-10-22T03:25:21;19.62;68.64
9861;DHT22;4969;52.304;4.968;2022-10-22T03:27:50;19.69;68.11
9861;DHT22;4969;52.304;4.968;2022-10-22T03:30:17;19.73;68.44
9861;DHT22;4969;52.304;4.968;2022-10-22T03:32:44;19.51;68.68
9861;DHT22;4969;52.304;4.968;2022-10-22T03:35:11;19.71;68.54
9861;DHT22;4969;52.304;4.968;2022-10-22T03:37:38;19.79;68.06
9861;DHT22;4969;52.304;4.968;2022-10-22T03:40:08;19.86;68.07
9861;DHT22;4969;52.304;4.968;2022-10-22T03:42:35;19.86;67.63
9861;DHT22;4969;52.304;4.968;2022-10-22T03:45:03;19.57;68.10
9861;DHT22;4969;52.304;4.968;2022-10-22T03:47:29;19.66;68.62
9861;DHT22;4969;52.304;4.968;2022-10-22T03:49:56;19.66;68.53
9861;DHT22;4969;52.304;4.968;2022-10-22T03:52:22;19.72;67.47
9861;DHT22;4969;52.304;4.968;2022-10-22T03:54:49;19.71;67.98
9861;DHT22;4969;52.304;4.968;2022-10-22T03:57:17;19.69;67.84
9861;DHT22;4969;52.304;4.968;2022-10-22T03:59:45;19.63;68.67
9861;DHT22;4969;52.304;4.968;2022-10-22T04:02:12;19.52;68.99
9861;DHT22;4969;52.304;4.968;2022-10-22T04:04:39;19.62;68.74
9861;DHT22;4969;52.304;4.968;2022-10-22T04:07:06;19.75;68.29
9861;DHT22;4969;52.304;4.968;2022-10-22T04:09:34;19.80;68.01
9861;DHT22;4969;52.304;4.968;2022-10-22T04:12:00;19.85;67.07
9861;DHT22;4969;52.304;4.968;2022-10-22T04:14:31;19.75;68.11
9861;DHT22;4969;52.304;4.968;2022-10-22T04:16:57;19.59;68.71
9861;DHT22;4969;52.304;4.968;2022-10-22T04:19:24;19.69;67.38
9861;DHT22;4969;52.304;4.968;2022-10-22T04:21:51;19.76;68.10
9861;DHT22;4969;52.304;4.968;2022-10-22T04:24:17;19.48;68.78
9861;DHT22;4969;52.304;4.968;2022-10-22T04:26:44;19.62;68.59
9861;DHT22;4969;52.304;4.968;2022-10-22T04:29:10;19.76;67.74
9861;DHT22;4969;52.304;4.968;2022-10-22T04:31:38;19.78;68.05
9861;DHT22;4969;52.304;4.968;2022-10-22T04:34:05;19.61;67.39
9861;DHT22;4969;52.304;4.968;2022-10-22T04:36:32;19.52;68.85
9861;DHT22;4969;52.304;4.968;2022-10-22T04:39:00;19.16;68.70
9861;DHT22;4969;52.304;4.968;2022-10-22T04:41:28;18.92;68.47
9861;DHT22;4969;52.304;4.968;2022-10-22T04:43:56;18.96;70.42
9861;DHT22;4969;52.304;4.968;2022-10-22T04:46:24;19.30;69.95
9861;DHT22;4969;52.304;4.968;2022-10-22T04:48:52;19.33;68.30
9861;DHT22;4969;52.304;4.968;2022-10-22T04:51:20;19.37;68.52
9861;DHT22;4969;52.304;4.968;2022-10-22T04:53:47;19.19;68.75
9861;DHT22;4969;52.304;4.968;2022-10-22T04:56:15;19.37;70.06
9861;DHT22;4969;52.304;4.968;2022-10-22T04:58:45;19.57;69.43
9861;DHT22;4969;52.304;4.968;2022-10-22T05:01:14;19.65;69.12
9861;DHT22;4969;52.304;4.968;2022-10-22T05:03:41;19.68;68.60
9861;DHT22;4969;52.304;4.968;2022-10-22T05:06:10;19.65;67.71
9861;DHT22;4969;52.304;4.968;2022-10-22T05:08:37;19.65;68.48
9861;DHT22;4969;52.304;4.968;2022-10-22T05:11:10;19.41;68.25
9861;DHT22;4969;52.304;4.968;2022-10-22T05:13:37;19.42;69.61
9861;DHT22;4969;52.304;4.968;2022-10-22T05:16:04;19.31;69.53
9861;DHT22;4969;52.304;4.968;2022-10-22T05:18:33;19.45;69.01
9861;DHT22;4969;52.304;4.968;2022-10-22T05:20:59;19.37;67.51
9861;DHT22;4969;52.304;4.968;2022-10-22T05:23:28;19.54;69.32
9861;DHT22;4969;52.304;4.968;2022-10-22T05:25:54;19.28;68.26
9861;DHT22;4969;52.304;4.968;2022-10-22T05:28:21;19.14;70.30
9861;DHT22;4969;52.304;4.968;2022-10-22T05:30:52;19.38;69.47
9861;DHT22;4969;52.304;4.968;2022-10-22T05:33:19;19.04;69.60
9861;DHT22;4969;52.304;4.968;2022-10-22T05:35:46;19.08;70.66
9861;DHT22;4969;52.304;4.968;2022-10-22T05:38:13;19.02;69.79
9861;DHT22;4969;52.304;4.968;2022-10-22T05:40:41;19.16;68.71
9861;DHT22;4969;52.304;4.968;2022-10-22T05:43:08;19.20;69.47
9861;DHT22;4969;52.304;4.968;2022-10-22T05:45:35;19.42;69.01
9861;DHT22;4969;52.304;4.968;2022-10-22T05:48:02;19.19;69.53
9861;DHT22;4969;52.304;4.968;2022-10-22T05:50:29;19.08;68.91
9861;DHT22;4969;52.304;4.968;2022-10-22T05:52:55;19.14;70.57
9861;DHT22;4969;52.304;4.968;2022-10-22T05:55:22;19.41;69.39
9861;DHT22;4969;52.304;4.968;2022-10-22T05:57:50;19.23;69.62
9861;DHT22;4969;52.304;4.968;2022-10-22T06:00:17;19.42;69.27
9861;DHT22;4969;52.304;4.968;2022-10-22T06:02:44;19.26;68.82
9861;DHT22;4969;52.304;4.968;2022-10-22T06:05:14;19.19;69.94
9861;DHT22;4969;52.304;4.968;2022-10-22T06:07:41;18.97;68.56
9861;DHT22;4969;52.304;4.968;2022-10-22T06:10:09;18.97;69.83
9861;DHT22;4969;52.304;4.968;2022-10-22T06:12:39;18.99;70.50
9861;DHT22;4969;52.304;4.968;2022-10-22T06:15:08;19.14;69.95
9861;DHT22;4969;52.304;4.968;2022-10-22T06:17:35;19.00;70.67
9861;DHT22;4969;52.304;4.968;2022-10-22T06:20:02;19.07;70.05
9861;DHT22;4969;52.304;4.968;2022-10-22T06:22:29;19.00;70.68
9861;DHT22;4969;52.304;4.968;2022-10-22T06:24:55;19.07;70.04
9861;DHT22;4969;52.304;4.968;2022-10-22T06:27:22;19.04;70.68
9861;DHT22;4969;52.304;4.968;2022-10-22T06:29:48;19.23;69.85
9861;DHT22;4969;52.304;4.968;2022-10-22T06:32:16;19.30;68.88
9861;DHT22;4969;52.304;4.968;2022-10-22T06:34:43;19.24;68.58
9861;DHT22;4969;52.304;4.968;2022-10-22T06:37:10;19.13;69.61
9861;DHT22;4969;52.304;4.968;2022-10-22T06:39:38;18.72;69.92
9861;DHT22;4969;52.304;4.968;2022-10-22T06:42:04;18.68;70.39
9861;DHT22;4969;52.304;4.968;2022-10-22T06:44:31;19.20;69.76
9861;DHT22;4969;52.304;4.968;2022-10-22T06:46:58;19.17;68.57
9861;DHT22;4969;52.304;4.968;2022-10-22T06:49:25;19.14;70.13
9861;DHT22;4969;52.304;4.968;2022-10-22T06:51:52;19.23;69.03
9861;DHT22;4969;52.304;4.968;2022-10-22T06:54:19;18.99;69.51
9861;DHT22;4969;52.304;4.968;2022-10-22T06:56:46;19.14;70.05
9861;DHT22;4969;52.304;4.968;2022-10-22T06:59:12;18.96;69.79
9861;DHT22;4969;52.304;4.968;2022-10-22T07:01:39;18.83;70.34
9861;DHT22;4969;52.304;4.968;2022-10-22T07:04:06;19.04;69.56
9861;DHT22;4969;52.304;4.968;2022-10-22T07:06:35;19.00;70.28
9861;DHT22;4969;52.304;4.968;2022-10-22T07:09:02;19.35;69.37
9861;DHT22;4969;52.304;4.968;2022-10-22T07:11:31;19.50;69.07
9861;DHT22;4969;52.304;4.968;2022-10-22T07:14:02;19.40;69.15
9861;DHT22;4969;52.304;4.968;2022-10-22T07:16:29;19.40;68.73
9861;DHT22;4969;52.304;4.968;2022-10-22T07:18:56;19.54;69.03
9861;DHT22;4969;52.304;4.968;2022-10-22T07:21:22;19.28;69.75
9861;DHT22;4969;52.304;4.968;2022-10-22T07:23:51;19.38;69.45
9861;DHT22;4969;52.304;4.968;2022-10-22T07:26:18;18.96;69.38
9861;DHT22;4969;52.304;4.968;2022-10-22T07:28:46;19.30;69.78
9861;DHT22;4969;52.304;4.968;2022-10-22T07:31:14;19.45;69.24
9861;DHT22;4969;52.304;4.968;2022-10-22T07:33:41;19.35;69.57
9861;DHT22;4969;52.304;4.968;2022-10-22T07:36:10;19.23;69.63
9861;DHT22;4969;52.304;4.968;2022-10-22T07:38:41;19.24;69.28
9861;DHT22;4969;52.304;4.968;2022-10-22T07:41:10;19.38;69.52
9861;DHT22;4969;52.304;4.968;2022-10-22T07:43:37;19.22;69.82
9861;DHT22;4969;52.304;4.968;2022-10-22T07:46:03;18.99;70.40
9861;DHT22;4969;52.304;4.968;2022-10-22T07:48:32;19.54;69.00
9861;DHT22;4969;52.304;4.968;2022-10-22T07:50:59;19.51;68.75
9861;DHT22;4969;52.304;4.968;2022-10-22T07:53:25;19.23;68.84
9861;DHT22;4969;52.304;4.968;2022-10-22T07:55:52;19.37;69.48
9861;DHT22;4969;52.304;4.968;2022-10-22T07:58:21;19.37;68.62
9861;DHT22;4969;52.304;4.968;2022-10-22T08:00:48;19.30;69.23
9861;DHT22;4969;52.304;4.968;2022-10-22T08:03:16;19.38;70.39
9861;DHT22;4969;52.304;4.968;2022-10-22T08:05:43;19.35;70.23
9861;DHT22;4969;52.304;4.968;2022-10-22T08:08:10;19.24;71.38
9861;DHT22;4969;52.304;4.968;2022-10-22T08:10:37;19.22;70.70
9861;DHT22;4969;52.304;4.968;2022-10-22T08:13:05;19.20;69.87
9861;DHT22;4969;52.304;4.968;2022-10-22T08:15:33;19.16;70.27
9861;DHT22;4969;52.304;4.968;2022-10-22T08:18:00;19.33;70.38
9861;DHT22;4969;52.304;4.968;2022-10-22T08:20:26;19.38;69.88
9861;DHT22;4969;52.304;4.968;2022-10-22T08:22:53;19.13;69.15
9861;DHT22;4969;52.304;4.968;2022-10-22T08:25:19;19.23;70.32
9861;DHT22;4969;52.304;4.968;2022-10-22T08:27:46;19.26;70.00
9861;DHT22;4969;52.304;4.968;2022-10-22T08:30:13;19.24;69.68
9861;DHT22;4969;52.304;4.968;2022-10-22T08:32:42;19.35;69.82
9861;DHT22;4969;52.304;4.968;2022-10-22T08:35:08;19.41;69.43
9861;DHT22;4969;52.304;4.968;2022-10-22T08:37:35;19.16;70.16
9861;DHT22;4969;52.304;4.968;2022-10-22T08:40:02;19.19;70.09
9861;DHT22;4969;52.304;4.968;2022-10-22T08:42:42;19.31;70.90
9861;DHT22;4969;52.304;4.968;2022-10-22T08:45:17;19.40;70.48
9861;DHT22;4969;52.304;4.968;2022-10-22T08:52:11;19.17;72.09
9861;DHT22;4969;52.304;4.968;2022-10-22T08:54:46;19.27;70.92
9861;DHT22;4969;52.304;4.968;2022-10-22T08:57:31;19.14;71.48
9861;DHT22;4969;52.304;4.968;2022-10-22T09:00:04;18.97;70.75
9861;DHT22;4969;52.304;4.968;2022-10-22T09:02:37;19.06;70.71
9861;DHT22;4969;52.304;4.968;2022-10-22T09:05:17;18.85;72.09
9861;DHT22;4969;52.304;4.968;2022-10-22T09:07:48;18.82;71.30
9861;DHT22;4969;52.304;4.968;2022-10-22T09:10:16;19.23;71.87
9861;DHT22;4969;52.304;4.968;2022-10-22T09:12:43;18.93;71.66
9861;DHT22;4969;52.304;4.968;2022-10-22T09:15:13;18.59;73.29
9861;DHT22;4969;52.304;4.968;2022-10-22T09:17:49;18.54;72.94
9861;DHT22;4969;52.304;4.968;2022-10-22T09:20:24;18.61;72.29
9861;DHT22;4969;52.304;4.968;2022-10-22T09:23:15;18.71;73.93
9861;DHT22;4969;52.304;4.968;2022-10-22T09:25:46;18.90;72.75
9861;DHT22;4969;52.304;4.968;2022-10-22T09:28:13;18.51;72.95
9861;DHT22;4969;52.304;4.968;2022-10-22T09:30:40;18.44;73.56
9861;DHT22;4969;52.304;4.968;2022-10-22T09:33:12;18.88;72.55
9861;DHT22;4969;52.304;4.968;2022-10-22T09:35:47;19.07;71.93
9861;DHT22;4969;52.304;4.968;2022-10-22T09:38:19;18.90;72.44
9861;DHT22;4969;52.304;4.968;2022-10-22T09:40:48;19.17;71.77
9861;DHT22;4969;52.304;4.968;2022-10-22T09:43:16;18.79;71.57
9861;DHT22;4969;52.304;4.968;2022-10-22T09:45:47;18.58;72.86
9861;DHT22;4969;52.304;4.968;2022-10-22T09:48:19;18.83;72.25
9861;DHT22;4969;52.304;4.968;2022-10-22T09:50:56;18.62;72.26
9861;DHT22;4969;52.304;4.968;2022-10-22T09:53:28;18.67;72.22
9861;DHT22;4969;52.304;4.968;2022-10-22T09:55:57;18.79;72.43
9861;DHT22;4969;52.304;4.968;2022-10-22T09:58:25;18.89;71.62
9861;DHT22;4969;52.304;4.968;2022-10-22T10:00:57;18.86;72.22
9861;DHT22;4969;52.304;4.968;2022-10-22T10:03:25;18.97;72.32
9861;DHT22;4969;52.304;4.968;2022-10-22T10:05:54;19.30;71.12
9861;DHT22;4969;52.304;4.968;2022-10-22T10:08:21;19.22;71.51
9861;DHT22;4969;52.304;4.968;2022-10-22T10:10:51;19.42;70.46
9861;DHT22;4969;52.304;4.968;2022-10-22T10:13:33;19.51;68.90
9861;DHT22;4969;52.304;4.968;2022-10-22T10:16:08;19.47;69.76
9861;DHT22;4969;52.304;4.968;2022-10-22T10:18:45;19.45;70.17
9861;DHT22;4969;52.304;4.968;2022-10-22T10:21:19;19.44;70.08
9861;DHT22;4969;52.304;4.968;2022-10-22T10:23:54;19.37;70.33
9861;DHT22;4969;52.304;4.968;2022-10-22T10:26:28;18.96;70.88
9861;DHT22;4969;52.304;4.968;2022-10-22T10:29:09;18.82;71.30
9861;DHT22;4969;52.304;4.968;2022-10-22T10:31:46;18.97;71.34
9861;DHT22;4969;52.304;4.968;2022-10-22T10:34:26;19.03;70.73
9861;DHT22;4969;52.304;4.968;2022-10-22T10:37:01;19.24;70.72
9861;DHT22;4969;52.304;4.968;2022-10-22T10:39:39;18.82;72.11
9861;DHT22;4969;52.304;4.968;2022-10-22T10:42:17;19.06;70.42
9861;DHT22;4969;52.304;4.968;2022-10-22T10:44:54;19.28;70.90
9861;DHT22;4969;52.304;4.968;2022-10-22T10:50:52;19.06;71.38
9861;DHT22;4969;52.304;4.968;2022-10-22T10:53:28;19.38;70.70
9861;DHT22;4969;52.304;4.968;2022-10-22T10:56:01;19.10;70.36
9861;DHT22;4969;52.304;4.968;2022-10-22T10:58:39;19.13;70.45
9861;DHT22;4969;52.304;4.968;2022-10-22T11:01:17;19.26;70.14
9861;DHT22;4969;52.304;4.968;2022-10-22T11:06:41;19.28;70.27
9861;DHT22;4969;52.304;4.968;2022-10-22T11:09:23;19.23;69.56
9861;DHT22;4969;52.304;4.968;2022-10-22T11:11:52;19.65;69.85
9861;DHT22;4969;52.304;4.968;2022-10-22T11:14:28;19.41;68.48
9861;DHT22;4969;52.304;4.968;2022-10-22T11:16:58;19.23;69.39
9861;DHT22;4969;52.304;4.968;2022-10-22T11:19:31;19.40;70.00
9861;DHT22;4969;52.304;4.968;2022-10-22T11:22:02;19.20;68.57
9861;DHT22;4969;52.304;4.968;2022-10-22T11:24:34;19.24;66.95
9861;DHT22;4969;52.304;4.968;2022-10-22T11:27:06;18.85;68.72
9861;DHT22;4969;52.304;4.968;2022-10-22T11:29:41;18.96;67.65
9861;DHT22;4969;52.304;4.968;2022-10-22T11:32:11;18.95;69.78
9861;DHT22;4969;52.304;4.968;2022-10-22T11:34:44;18.90;65.64
9861;DHT22;4969;52.304;4.968;2022-10-22T11:37:12;18.89;63.65
9861;DHT22;4969;52.304;4.968;2022-10-22T11:39:43;18.69;69.96
9861;DHT22;4969;52.304;4.968;2022-10-22T11:42:18;18.85;67.80
9861;DHT22;4969;52.304;4.968;2022-10-22T11:44:48;18.65;64.08
9861;DHT22;4969;52.304;4.968;2022-10-22T11:47:18;18.80;63.77
9861;DHT22;4969;52.304;4.968;2022-10-22T11:49:54;18.59;65.04
9861;DHT22;4969;52.304;4.968;2022-10-22T11:52:25;18.58;65.11
9861;DHT22;4969;52.304;4.968;2022-10-22T11:54:56;18.55;63.67
9861;DHT22;4969;52.304;4.968;2022-10-22T11:57:28;18.51;66.88
9861;DHT22;4969;52.304;4.968;2022-10-22T12:00:09;18.24;63.75
9861;DHT22;4969;52.304;4.968;2022-10-22T12:02:41;18.23;63.90
9861;DHT22;4969;52.304;4.968;2022-10-22T12:05:29;18.52;64.90
9861;DHT22;4969;52.304;4.968;2022-10-22T12:08:00;18.20;63.69
9861;DHT22;4969;52.304;4.968;2022-10-22T12:10:34;18.37;63.69
9861;DHT22;4969;52.304;4.968;2022-10-22T12:13:04;18.43;63.19
9861;DHT22;4969;52.304;4.968;2022-10-22T12:15:45;18.04;64.30
9861;DHT22;4969;52.304;4.968;2022-10-22T12:18:12;18.62;68.07
9861;DHT22;4969;52.304;4.968;2022-10-22T12:20:39;18.75;63.44
9861;DHT22;4969;52.304;4.968;2022-10-22T12:23:08;18.73;64.28
9861;DHT22;4969;52.304;4.968;2022-10-22T12:25:35;18.68;67.38
9861;DHT22;4969;52.304;4.968;2022-10-22T12:28:03;18.90;66.75
9861;DHT22;4969;52.304;4.968;2022-10-22T12:30:31;19.51;68.00
9861;DHT22;4969;52.304;4.968;2022-10-22T12:33:01;19.87;64.37
9861;DHT22;4969;52.304;4.968;2022-10-22T12:35:30;19.65;63.41
9861;DHT22;4969;52.304;4.968;2022-10-22T12:37:59;19.45;68.04
9861;DHT22;4969;52.304;4.968;2022-10-22T12:40:27;19.65;64.99
9861;DHT22;4969;52.304;4.968;2022-10-22T12:42:56;19.38;64.66
9861;DHT22;4969;52.304;4.968;2022-10-22T12:45:25;19.62;67.04
9861;DHT22;4969;52.304;4.968;2022-10-22T12:47:56;19.69;63.51
9861;DHT22;4969;52.304;4.968;2022-10-22T12:50:30;19.62;63.56
9861;DHT22;4969;52.304;4.968;2022-10-22T12:52:58;19.16;64.23
9861;DHT22;4969;52.304;4.968;2022-10-22T12:55:25;19.34;63.52
9861;DHT22;4969;52.304;4.968;2022-10-22T12:57:52;19.31;63.07
9861;DHT22;4969;52.304;4.968;2022-10-22T13:00:20;19.50;65.60
9861;DHT22;4969;52.304;4.968;2022-10-22T13:02:48;19.58;63.24
9861;DHT22;4969;52.304;4.968;2022-10-22T13:05:20;19.50;64.37
9861;DHT22;4969;52.304;4.968;2022-10-22T13:07:50;19.89;68.56
9861;DHT22;4969;52.304;4.968;2022-10-22T13:10:21;19.26;63.50
9861;DHT22;4969;52.304;4.968;2022-10-22T13:12:50;19.24;63.77
9861;DHT22;4969;52.304;4.968;2022-10-22T13:15:19;19.13;64.18
9861;DHT22;4969;52.304;4.968;2022-10-22T13:17:47;19.28;65.82
9861;DHT22;4969;52.304;4.968;2022-10-22T13:20:19;19.45;64.14
9861;DHT22;4969;52.304;4.968;2022-10-22T13:22:56;19.55;64.93
9861;DHT22;4969;52.304;4.968;2022-10-22T13:25:26;19.38;60.97
9861;DHT22;4969;52.304;4.968;2022-10-22T13:27:54;19.13;62.73
9861;DHT22;4969;52.304;4.968;2022-10-22T13:30:23;18.79;62.91
9861;DHT22;4969;52.304;4.968;2022-10-22T13:32:51;18.83;62.64
9861;DHT22;4969;52.304;4.968;2022-10-22T13:35:21;18.83;62.51
9861;DHT22;4969;52.304;4.968;2022-10-22T13:37:48;19.37;64.65
9861;DHT22;4969;52.304;4.968;2022-10-22T13:40:17;19.31;64.25
9861;DHT22;4969;52.304;4.968;2022-10-22T13:42:43;19.17;63.53
9861;DHT22;4969;52.304;4.968;2022-10-22T13:45:11;19.41;67.41
9861;DHT22;4969;52.304;4.968;2022-10-22T13:47:37;19.65;63.54
9861;DHT22;4969;52.304;4.968;2022-10-22T13:50:11;19.41;66.23
9861;DHT22;4969;52.304;4.968;2022-10-22T13:52:40;19.95;63.59
9861;DHT22;4969;52.304;4.968;2022-10-22T13:55:13;19.52;61.25
9861;DHT22;4969;52.304;4.968;2022-10-22T13:57:42;19.41;62.31
9861;DHT22;4969;52.304;4.968;2022-10-22T14:00:11;19.82;69.54
9861;DHT22;4969;52.304;4.968;2022-10-22T14:02:38;19.89;66.70
9861;DHT22;4969;52.304;4.968;2022-10-22T14:05:06;19.87;67.33
9861;DHT22;4969;52.304;4.968;2022-10-22T14:07:34;19.69;61.87
9861;DHT22;4969;52.304;4.968;2022-10-22T14:10:01;19.61;62.91
9861;DHT22;4969;52.304;4.968;2022-10-22T14:12:27;19.62;64.22
9861;DHT22;4969;52.304;4.968;2022-10-22T14:14:55;19.61;64.36
9861;DHT22;4969;52.304;4.968;2022-10-22T14:17:22;19.80;68.53
9861;DHT22;4969;52.304;4.968;2022-10-22T14:19:48;19.28;65.73
9861;DHT22;4969;52.304;4.968;2022-10-22T14:22:16;19.41;66.64
9861;DHT22;4969;52.304;4.968;2022-10-22T14:24:43;19.42;61.80
9861;DHT22;4969;52.304;4.968;2022-10-22T14:27:12;19.22;62.44
9861;DHT22;4969;52.304;4.968;2022-10-22T14:29:38;19.11;61.43
9861;DHT22;4969;52.304;4.968;2022-10-22T14:32:11;19.45;66.81
9861;DHT22;4969;52.304;4.968;2022-10-22T14:34:38;19.62;69.12
9861;DHT22;4969;52.304;4.968;2022-10-22T14:37:07;19.23;63.74
9861;DHT22;4969;52.304;4.968;2022-10-22T14:39:38;18.92;62.37
9861;DHT22;4969;52.304;4.968;2022-10-22T14:42:07;19.13;70.58
9861;DHT22;4969;52.304;4.968;2022-10-22T14:44:34;19.31;63.58
9861;DHT22;4969;52.304;4.968;2022-10-22T14:47:00;19.38;66.49
9861;DHT22;4969;52.304;4.968;2022-10-22T14:49:28;19.19;61.21
9861;DHT22;4969;52.304;4.968;2022-10-22T14:51:55;19.02;64.60
9861;DHT22;4969;52.304;4.968;2022-10-22T14:54:21;18.67;62.89
9861;DHT22;4969;52.304;4.968;2022-10-22T14:56:48;18.68;62.35
9861;DHT22;4969;52.304;4.968;2022-10-22T14:59:14;19.11;64.25
9861;DHT22;4969;52.304;4.968;2022-10-22T15:01:41;19.19;62.56
9861;DHT22;4969;52.304;4.968;2022-10-22T15:04:08;19.35;64.36
9861;DHT22;4969;52.304;4.968;2022-10-22T15:06:36;19.28;64.03
9861;DHT22;4969;52.304;4.968;2022-10-22T15:09:03;19.22;61.38
9861;DHT22;4969;52.304;4.968;2022-10-22T15:11:29;19.08;65.20
9861;DHT22;4969;52.304;4.968;2022-10-22T15:13:56;19.07;65.40
9861;DHT22;4969;52.304;4.968;2022-10-22T15:16:22;19.34;67.64
9861;DHT22;4969;52.304;4.968;2022-10-22T15:18:50;19.65;68.78
9861;DHT22;4969;52.304;4.968;2022-10-22T15:21:18;19.99;68.22
9861;DHT22;4969;52.304;4.968;2022-10-22T15:23:47;19.86;68.26
9861;DHT22;4969;52.304;4.968;2022-10-22T15:26:26;19.82;68.32
9861;DHT22;4969;52.304;4.968;2022-10-22T15:28:53;19.79;64.75
9861;DHT22;4969;52.304;4.968;2022-10-22T15:31:40;19.58;65.71
9861;DHT22;4969;52.304;4.968;2022-10-22T15:34:07;19.85;66.96
9861;DHT22;4969;52.304;4.968;2022-10-22T15:36:34;19.58;61.81
9861;DHT22;4969;52.304;4.968;2022-10-22T15:39:07;19.17;62.33
9861;DHT22;4969;52.304;4.968;2022-10-22T15:41:34;19.41;66.94
9861;DHT22;4969;52.304;4.968;2022-10-22T15:44:00;19.30;64.01
9861;DHT22;4969;52.304;4.968;2022-10-22T15:46:27;19.22;65.25
9861;DHT22;4969;52.304;4.968;2022-10-22T15:48:54;19.08;65.70
9861;DHT22;4969;52.304;4.968;2022-10-22T15:51:21;19.16;65.79
9861;DHT22;4969;52.304;4.968;2022-10-22T15:53:50;18.85;62.97
9861;DHT22;4969;52.304;4.968;2022-10-22T15:56:18;19.24;67.93
9861;DHT22;4969;52.304;4.968;2022-10-22T15:58:46;19.50;66.49
9861;DHT22;4969;52.304;4.968;2022-10-22T16:01:13;19.19;64.69
9861;DHT22;4969;52.304;4.968;2022-10-22T16:03:40;19.16;66.86
9861;DHT22;4969;52.304;4.968;2022-10-22T16:06:07;18.86;65.69
9861;DHT22;4969;52.304;4.968;2022-10-22T16:08:34;18.88;65.18
9861;DHT22;4969;52.304;4.968;2022-10-22T16:11:01;18.92;65.99
9861;DHT22;4969;52.304;4.968;2022-10-22T16:13:29;18.79;65.04
9861;DHT22;4969;52.304;4.968;2022-10-22T16:15:55;18.64;66.45
9861;DHT22;4969;52.304;4.968;2022-10-22T16:18:22;18.78;65.80
9861;DHT22;4969;52.304;4.968;2022-10-22T16:20:48;18.68;66.33
9861;DHT22;4969;52.304;4.968;2022-10-22T16:23:15;18.68;66.30
9861;DHT22;4969;52.304;4.968;2022-10-22T16:25:43;18.58;68.65
9861;DHT22;4969;52.304;4.968;2022-10-22T16:28:10;18.67;68.45